sensor_id;sensor_type;location;lat;lon;timestamp;temperature;humidity
65038;DHT22;51605;47.040;15.294;2024-02-16T00:02:00;20.70;52.30
65038;DHT22;51605;47.040;15.294;2024-02-16T00:04:27;20.70;52.30
65038;DHT22;51605;47.040;15.294;2024-02-16T00:06:53;20.70;52.30
65038;DHT22;51605;47.040;15.294;2024-02-16T00:09:19;20.70;52.30
65038;DHT22;51605;47.040;15.294;2024-02-16T00:11:44;20.70;52.30
65038;DHT22;51605;47.040;15.294;2024-02-16T00:14:10;20.70;52.30
65038;DHT22;51605;47.040;15.294;2024-02-16T00:16:36;20.70;52.30
65038;DHT22;51605;47.040;15.294;2024-02-16T00:19:02;20.70;52.30
65038;DHT22;51605;47.040;15.294;2024-02-16T00:21:28;20.70;52.30
65038;DHT22;51605;47.040;15.294;2024-02-16T00:23:54;20.70;52.20
65038;DHT22;51605;47.040;15.294;2024-02-16T00:26:20;20.70;52.30
65038;DHT22;51605;47.040;15.294;2024-02-16T00:28:46;20.70;52.30
65038;DHT22;51605;47.040;15.294;2024-02-16T00:31:12;20.70;52.30
65038;DHT22;51605;47.040;15.294;2024-02-16T00:33:38;20.60;52.30
65038;DHT22;51605;47.040;15.294;2024-02-16T00:36:04;20.70;52.30
65038;DHT22;51605;47.040;15.294;2024-02-16T00:38:29;20.70;52.30
65038;DHT22;51605;47.040;15.294;2024-02-16T00:40:55;20.70;52.30
65038;DHT22;51605;47.040;15.294;2024-02-16T00:43:21;20.70;52.20
65038;DHT22;51605;47.040;15.294;2024-02-16T00:45:46;20.70;52.30
65038;DHT22;51605;47.040;15.294;2024-02-16T00:48:14;20.60;52.30
65038;DHT22;51605;47.040;15.294;2024-02-16T00:50:39;20.70;52.30
65038;DHT22;51605;47.040;15.294;2024-02-16T00:53:05;20.60;52.30
65038;DHT22;51605;47.040;15.294;2024-02-16T00:55:31;20.70;52.30
65038;DHT22;51605;47.040;15.294;2024-02-16T00:57:56;20.60;52.30
65038;DHT22;51605;47.040;15.294;2024-02-16T01:00:22;20.60;52.20
65038;DHT22;51605;47.040;15.294;2024-02-16T01:02:51;20.60;52.40
65038;DHT22;51605;47.040;15.294;2024-02-16T01:05:20;20.60;52.30
65038;DHT22;51605;47.040;15.294;2024-02-16T01:07:45;20.60;52.30
65038;DHT22;51605;47.040;15.294;2024-02-16T01:10:11;20.60;53.20
65038;DHT22;51605;47.040;15.294;2024-02-16T01:12:40;20.60;52.30
65038;DHT22;51605;47.040;15.294;2024-02-16T01:15:06;20.70;52.40
65038;DHT22;51605;47.040;15.294;2024-02-16T01:17:32;20.60;52.20
65038;DHT22;51605;47.040;15.294;2024-02-16T01:19:58;20.60;52.20
65038;DHT22;51605;47.040;15.294;2024-02-16T01:22:24;20.70;52.20
65038;DHT22;51605;47.040;15.294;2024-02-16T01:24:50;20.70;52.20
65038;DHT22;51605;47.040;15.294;2024-02-16T01:27:16;20.70;52.30
65038;DHT22;51605;47.040;15.294;2024-02-16T01:29:42;20.60;52.30
65038;DHT22;51605;47.040;15.294;2024-02-16T01:32:08;20.60;52.20
65038;DHT22;51605;47.040;15.294;2024-02-16T01:34:34;20.70;52.20
65038;DHT22;51605;47.040;15.294;2024-02-16T01:36:59;20.60;52.20
65038;DHT22;51605;47.040;15.294;2024-02-16T01:39:25;20.70;52.30
65038;DHT22;51605;47.040;15.294;2024-02-16T01:41:51;20.70;52.30
65038;DHT22;51605;47.040;15.294;2024-02-16T01:44:16;20.60;52.30
65038;DHT22;51605;47.040;15.294;2024-02-16T01:46:43;20.70;52.30
65038;DHT22;51605;47.040;15.294;2024-02-16T01:49:10;20.70;52.20
65038;DHT22;51605;47.040;15.294;2024-02-16T01:51:36;20.70;52.20
65038;DHT22;51605;47.040;15.294;2024-02-16T01:54:02;20.70;52.20
65038;DHT22;51605;47.040;15.294;2024-02-16T01:56:29;20.70;52.20
65038;DHT22;51605;47.040;15.294;2024-02-16T01:58:54;20.70;53.10
65038;DHT22;51605;47.040;15.294;2024-02-16T02:01:21;20.70;52.20
65038;DHT22;51605;47.040;15.294;2024-02-16T02:03:46;20.70;52.20
65038;DHT22;51605;47.040;15.294;2024-02-16T02:06:12;20.70;52.30
65038;DHT22;51605;47.040;15.294;2024-02-16T02:08:38;20.70;52.20
65038;DHT22;51605;47.040;15.294;2024-02-16T02:11:03;20.70;52.30
65038;DHT22;51605;47.040;15.294;2024-02-16T02:13:30;20.70;52.20
65038;DHT22;51605;47.040;15.294;2024-02-16T02:15:58;20.60;52.20
65038;DHT22;51605;47.040;15.294;2024-02-16T02:18:24;20.70;52.20
65038;DHT22;51605;47.040;15.294;2024-02-16T02:20:50;20.70;52.20
65038;DHT22;51605;47.040;15.294;2024-02-16T02:23:15;20.70;52.20
65038;DHT22;51605;47.040;15.294;2024-02-16T02:25:42;20.70;52.20
65038;DHT22;51605;47.040;15.294;2024-02-16T02:28:07;20.70;52.20
65038;DHT22;51605;47.040;15.294;2024-02-16T02:30:33;20.70;52.10
65038;DHT22;51605;47.040;15.294;2024-02-16T02:32:59;20.70;52.20
65038;DHT22;51605;47.040;15.294;2024-02-16T02:35:25;20.70;52.20
65038;DHT22;51605;47.040;15.294;2024-02-16T02:37:50;20.60;52.10
65038;DHT22;51605;47.040;15.294;2024-02-16T02:40:16;20.70;52.20
65038;DHT22;51605;47.040;15.294;2024-02-16T02:42:42;20.70;52.20
65038;DHT22;51605;47.040;15.294;2024-02-16T02:45:08;20.70;52.20
65038;DHT22;51605;47.040;15.294;2024-02-16T02:47:33;20.60;52.20
65038;DHT22;51605;47.040;15.294;2024-02-16T02:49:59;20.70;52.20
65038;DHT22;51605;47.040;15.294;2024-02-16T02:52:25;20.70;52.20
65038;DHT22;51605;47.040;15.294;2024-02-16T02:54:51;20.70;52.20
65038;DHT22;51605;47.040;15.294;2024-02-16T02:57:17;20.60;52.10
65038;DHT22;51605;47.040;15.294;2024-02-16T02:59:43;20.70;52.10
65038;DHT22;51605;47.040;15.294;2024-02-16T03:02:10;20.70;52.20
65038;DHT22;51605;47.040;15.294;2024-02-16T03:04:36;20.70;52.20
65038;DHT22;51605;47.040;15.294;2024-02-16T03:07:01;20.70;52.20
65038;DHT22;51605;47.040;15.294;2024-02-16T03:09:28;20.60;52.10
65038;DHT22;51605;47.040;15.294;2024-02-16T03:11:53;20.70;52.20
65038;DHT22;51605;47.040;15.294;2024-02-16T03:14:19;20.70;52.20
65038;DHT22;51605;47.040;15.294;2024-02-16T03:16:45;20.70;52.20
65038;DHT22;51605;47.040;15.294;2024-02-16T03:19:10;20.70;52.20
65038;DHT22;51605;47.040;15.294;2024-02-16T03:21:36;20.60;52.10
65038;DHT22;51605;47.040;15.294;2024-02-16T03:24:02;20.60;52.20
65038;DHT22;51605;47.040;15.294;2024-02-16T03:26:29;20.60;52.20
65038;DHT22;51605;47.040;15.294;2024-02-16T03:28:54;20.60;52.20
65038;DHT22;51605;47.040;15.294;2024-02-16T03:31:23;20.60;53.20
65038;DHT22;51605;47.040;15.294;2024-02-16T03:33:49;20.70;52.20
65038;DHT22;51605;47.040;15.294;2024-02-16T03:36:15;20.70;52.20
65038;DHT22;51605;47.040;15.294;2024-02-16T03:38:45;20.60;52.20
65038;DHT22;51605;47.040;15.294;2024-02-16T03:41:17;20.60;52.10
65038;DHT22;51605;47.040;15.294;2024-02-16T03:43:43;20.60;52.10
65038;DHT22;51605;47.040;15.294;2024-02-16T03:46:09;20.60;52.10
65038;DHT22;51605;47.040;15.294;2024-02-16T03:48:35;20.60;52.10
65038;DHT22;51605;47.040;15.294;2024-02-16T03:51:01;20.70;52.20
65038;DHT22;51605;47.040;15.294;2024-02-16T03:53:28;20.70;52.20
65038;DHT22;51605;47.040;15.294;2024-02-16T03:55:54;20.60;52.20
65038;DHT22;51605;47.040;15.294;2024-02-16T03:58:21;20.60;52.20
65038;DHT22;51605;47.040;15.294;2024-02-16T04:00:47;20.60;52.20
65038;DHT22;51605;47.040;15.294;2024-02-16T04:03:14;20.60;52.20
65038;DHT22;51605;47.040;15.294;2024-02-16T04:05:40;20.60;52.10
65038;DHT22;51605;47.040;15.294;2024-02-16T04:08:06;20.60;52.10
65038;DHT22;51605;47.040;15.294;2024-02-16T04:10:33;20.60;52.20
65038;DHT22;51605;47.040;15.294;2024-02-16T04:12:59;20.60;52.10
65038;DHT22;51605;47.040;15.294;2024-02-16T04:15:24;20.70;52.20
65038;DHT22;51605;47.040;15.294;2024-02-16T04:17:50;20.70;53.10
65038;DHT22;51605;47.040;15.294;2024-02-16T04:20:16;20.60;52.20
65038;DHT22;51605;47.040;15.294;2024-02-16T04:22:42;20.60;52.20
65038;DHT22;51605;47.040;15.294;2024-02-16T04:25:08;20.60;52.20
65038;DHT22;51605;47.040;15.294;2024-02-16T04:27:34;20.60;52.10
65038;DHT22;51605;47.040;15.294;2024-02-16T04:30:01;20.60;52.20
65038;DHT22;51605;47.040;15.294;2024-02-16T04:32:26;20.60;52.10
65038;DHT22;51605;47.040;15.294;2024-02-16T04:34:52;20.60;52.10
65038;DHT22;51605;47.040;15.294;2024-02-16T04:37:19;20.60;52.20
65038;DHT22;51605;47.040;15.294;2024-02-16T04:39:45;20.70;52.20
65038;DHT22;51605;47.040;15.294;2024-02-16T04:42:10;20.60;52.10
65038;DHT22;51605;47.040;15.294;2024-02-16T04:44:39;20.60;52.10
65038;DHT22;51605;47.040;15.294;2024-02-16T04:47:05;20.60;52.20
65038;DHT22;51605;47.040;15.294;2024-02-16T04:49:31;20.60;52.20
65038;DHT22;51605;47.040;15.294;2024-02-16T04:51:57;20.60;52.10
65038;DHT22;51605;47.040;15.294;2024-02-16T04:54:23;20.60;52.20
65038;DHT22;51605;47.040;15.294;2024-02-16T04:56:49;20.60;52.10
65038;DHT22;51605;47.040;15.294;2024-02-16T04:59:16;20.60;52.10
65038;DHT22;51605;47.040;15.294;2024-02-16T05:01:43;20.60;53.10
65038;DHT22;51605;47.040;15.294;2024-02-16T05:04:10;20.60;52.10
65038;DHT22;51605;47.040;15.294;2024-02-16T05:06:40;20.60;52.20
65038;DHT22;51605;47.040;15.294;2024-02-16T05:09:06;20.60;52.20
65038;DHT22;51605;47.040;15.294;2024-02-16T05:11:33;20.60;52.20
65038;DHT22;51605;47.040;15.294;2024-02-16T05:13:59;20.60;52.10
65038;DHT22;51605;47.040;15.294;2024-02-16T05:16:25;20.60;52.20
65038;DHT22;51605;47.040;15.294;2024-02-16T05:18:51;20.60;52.10
65038;DHT22;51605;47.040;15.294;2024-02-16T05:21:17;20.60;52.20
65038;DHT22;51605;47.040;15.294;2024-02-16T05:23:43;20.60;52.20
65038;DHT22;51605;47.040;15.294;2024-02-16T05:26:09;20.60;52.30
65038;DHT22;51605;47.040;15.294;2024-02-16T05:28:34;20.60;52.20
65038;DHT22;51605;47.040;15.294;2024-02-16T05:31:18;20.60;52.10
65038;DHT22;51605;47.040;15.294;2024-02-16T05:33:45;20.60;52.20
65038;DHT22;51605;47.040;15.294;2024-02-16T05:36:11;20.60;52.10
65038;DHT22;51605;47.040;15.294;2024-02-16T05:38:39;20.60;52.10
65038;DHT22;51605;47.040;15.294;2024-02-16T05:41:09;20.60;52.20
65038;DHT22;51605;47.040;15.294;2024-02-16T05:43:36;20.60;52.20
65038;DHT22;51605;47.040;15.294;2024-02-16T05:46:03;20.60;52.20
65038;DHT22;51605;47.040;15.294;2024-02-16T05:48:34;20.60;52.10
65038;DHT22;51605;47.040;15.294;2024-02-16T05:51:03;20.60;52.10
65038;DHT22;51605;47.040;15.294;2024-02-16T05:53:31;20.60;52.10
65038;DHT22;51605;47.040;15.294;2024-02-16T05:55:56;20.60;52.20
65038;DHT22;51605;47.040;15.294;2024-02-16T05:58:22;20.60;52.10
65038;DHT22;51605;47.040;15.294;2024-02-16T06:00:48;20.60;52.10
65038;DHT22;51605;47.040;15.294;2024-02-16T06:03:14;20.60;52.10
65038;DHT22;51605;47.040;15.294;2024-02-16T06:05:40;20.60;52.10
65038;DHT22;51605;47.040;15.294;2024-02-16T06:08:07;20.60;52.10
65038;DHT22;51605;47.040;15.294;2024-02-16T06:10:33;20.60;52.20
65038;DHT22;51605;47.040;15.294;2024-02-16T06:12:59;20.60;52.20
65038;DHT22;51605;47.040;15.294;2024-02-16T06:15:24;20.60;52.20
65038;DHT22;51605;47.040;15.294;2024-02-16T06:17:50;20.60;52.10
65038;DHT22;51605;47.040;15.294;2024-02-16T06:20:16;20.60;52.10
65038;DHT22;51605;47.040;15.294;2024-02-16T06:22:42;20.60;52.30
65038;DHT22;51605;47.040;15.294;2024-02-16T06:25:08;20.60;52.00
65038;DHT22;51605;47.040;15.294;2024-02-16T06:27:35;20.60;52.00
65038;DHT22;51605;47.040;15.294;2024-02-16T06:30:00;20.60;51.90
65038;DHT22;51605;47.040;15.294;2024-02-16T06:32:26;20.60;51.90
65038;DHT22;51605;47.040;15.294;2024-02-16T06:34:53;20.60;51.90
65038;DHT22;51605;47.040;15.294;2024-02-16T06:37:19;20.60;52.00
65038;DHT22;51605;47.040;15.294;2024-02-16T06:39:45;20.60;52.00
65038;DHT22;51605;47.040;15.294;2024-02-16T06:42:10;20.60;52.00
65038;DHT22;51605;47.040;15.294;2024-02-16T06:44:39;20.60;52.00
65038;DHT22;51605;47.040;15.294;2024-02-16T06:47:05;20.60;52.00
65038;DHT22;51605;47.040;15.294;2024-02-16T06:49:31;20.60;52.00
65038;DHT22;51605;47.040;15.294;2024-02-16T06:51:57;20.60;52.00
65038;DHT22;51605;47.040;15.294;2024-02-16T06:54:23;20.60;52.00
65038;DHT22;51605;47.040;15.294;2024-02-16T06:56:51;20.60;52.50
65038;DHT22;51605;47.040;15.294;2024-02-16T06:59:17;20.60;52.00
65038;DHT22;51605;47.040;15.294;2024-02-16T07:01:43;20.60;53.00
65038;DHT22;51605;47.040;15.294;2024-02-16T07:04:09;20.60;52.00
65038;DHT22;51605;47.040;15.294;2024-02-16T07:06:35;20.60;52.10
65038;DHT22;51605;47.040;15.294;2024-02-16T07:09:01;20.60;52.10
65038;DHT22;51605;47.040;15.294;2024-02-16T07:11:28;20.60;52.10
65038;DHT22;51605;47.040;15.294;2024-02-16T07:13:55;20.60;52.10
65038;DHT22;51605;47.040;15.294;2024-02-16T07:16:20;20.60;52.00
65038;DHT22;51605;47.040;15.294;2024-02-16T07:18:46;20.60;51.90
65038;DHT22;51605;47.040;15.294;2024-02-16T07:21:12;20.60;51.90
65038;DHT22;51605;47.040;15.294;2024-02-16T07:23:38;20.60;52.80
65038;DHT22;51605;47.040;15.294;2024-02-16T07:26:04;20.60;51.70
65038;DHT22;51605;47.040;15.294;2024-02-16T07:28:30;20.60;51.50
65038;DHT22;51605;47.040;15.294;2024-02-16T07:30:56;20.60;51.40
65038;DHT22;51605;47.040;15.294;2024-02-16T07:33:21;20.60;51.20
65038;DHT22;51605;47.040;15.294;2024-02-16T07:35:50;20.60;51.30
65038;DHT22;51605;47.040;15.294;2024-02-16T07:38:17;20.60;51.50
65038;DHT22;51605;47.040;15.294;2024-02-16T07:40:43;20.60;51.50
65038;DHT22;51605;47.040;15.294;2024-02-16T07:43:11;20.60;51.50
65038;DHT22;51605;47.040;15.294;2024-02-16T07:45:36;20.60;51.50
65038;DHT22;51605;47.040;15.294;2024-02-16T07:48:02;20.60;51.60
65038;DHT22;51605;47.040;15.294;2024-02-16T07:50:31;20.60;51.20
65038;DHT22;51605;47.040;15.294;2024-02-16T07:52:57;20.60;51.10
65038;DHT22;51605;47.040;15.294;2024-02-16T07:55:23;20.60;51.00
65038;DHT22;51605;47.040;15.294;2024-02-16T07:57:50;20.60;51.00
65038;DHT22;51605;47.040;15.294;2024-02-16T08:00:16;20.60;51.00
65038;DHT22;51605;47.040;15.294;2024-02-16T08:02:42;20.60;51.00
65038;DHT22;51605;47.040;15.294;2024-02-16T08:05:11;20.60;51.10
65038;DHT22;51605;47.040;15.294;2024-02-16T08:07:38;20.60;51.10
65038;DHT22;51605;47.040;15.294;2024-02-16T08:10:04;20.60;51.10
65038;DHT22;51605;47.040;15.294;2024-02-16T08:12:29;20.60;51.10
65038;DHT22;51605;47.040;15.294;2024-02-16T08:14:57;20.60;51.10
65038;DHT22;51605;47.040;15.294;2024-02-16T08:17:24;20.60;51.20
65038;DHT22;51605;47.040;15.294;2024-02-16T08:19:53;20.60;51.30
65038;DHT22;51605;47.040;15.294;2024-02-16T08:22:19;20.60;51.30
65038;DHT22;51605;47.040;15.294;2024-02-16T08:24:45;20.60;51.30
65038;DHT22;51605;47.040;15.294;2024-02-16T08:27:15;20.60;51.30
65038;DHT22;51605;47.040;15.294;2024-02-16T08:29:41;20.60;51.40
65038;DHT22;51605;47.040;15.294;2024-02-16T08:32:07;20.60;51.40
65038;DHT22;51605;47.040;15.294;2024-02-16T08:34:34;20.60;51.40
65038;DHT22;51605;47.040;15.294;2024-02-16T08:37:02;20.60;51.40
65038;DHT22;51605;47.040;15.294;2024-02-16T08:39:29;20.60;51.50
65038;DHT22;51605;47.040;15.294;2024-02-16T08:41:56;20.60;51.50
65038;DHT22;51605;47.040;15.294;2024-02-16T08:44:22;20.60;51.50
65038;DHT22;51605;47.040;15.294;2024-02-16T08:46:48;20.60;51.50
65038;DHT22;51605;47.040;15.294;2024-02-16T08:49:15;20.60;51.50
65038;DHT22;51605;47.040;15.294;2024-02-16T08:51:41;20.60;51.60
65038;DHT22;51605;47.040;15.294;2024-02-16T08:54:07;20.60;51.60
65038;DHT22;51605;47.040;15.294;2024-02-16T08:56:33;20.60;51.60
65038;DHT22;51605;47.040;15.294;2024-02-16T08:59:01;20.60;52.00
65038;DHT22;51605;47.040;15.294;2024-02-16T09:01:31;20.60;52.10
65038;DHT22;51605;47.040;15.294;2024-02-16T09:03:57;20.60;52.40
65038;DHT22;51605;47.040;15.294;2024-02-16T09:06:22;20.60;52.30
65038;DHT22;51605;47.040;15.294;2024-02-16T09:08:48;20.60;52.40
65038;DHT22;51605;47.040;15.294;2024-02-16T09:11:14;20.60;52.30
65038;DHT22;51605;47.040;15.294;2024-02-16T09:13:40;20.70;52.30
65038;DHT22;51605;47.040;15.294;2024-02-16T09:16:06;20.70;52.40
65038;DHT22;51605;47.040;15.294;2024-02-16T09:18:37;20.60;52.30
65038;DHT22;51605;47.040;15.294;2024-02-16T09:21:06;20.70;52.20
65038;DHT22;51605;47.040;15.294;2024-02-16T09:23:33;20.60;52.00
65038;DHT22;51605;47.040;15.294;2024-02-16T09:25:59;20.60;52.00
65038;DHT22;51605;47.040;15.294;2024-02-16T09:28:28;20.60;52.00
65038;DHT22;51605;47.040;15.294;2024-02-16T09:30:58;20.60;51.90
65038;DHT22;51605;47.040;15.294;2024-02-16T09:33:24;20.60;52.00
65038;DHT22;51605;47.040;15.294;2024-02-16T09:35:52;20.60;52.00
65038;DHT22;51605;47.040;15.294;2024-02-16T09:38:18;20.60;52.00
65038;DHT22;51605;47.040;15.294;2024-02-16T09:40:44;20.60;52.00
65038;DHT22;51605;47.040;15.294;2024-02-16T09:43:10;20.60;51.90
65038;DHT22;51605;47.040;15.294;2024-02-16T09:45:46;20.60;52.00
65038;DHT22;51605;47.040;15.294;2024-02-16T09:48:13;20.60;51.90
65038;DHT22;51605;47.040;15.294;2024-02-16T09:50:39;20.60;52.00
65038;DHT22;51605;47.040;15.294;2024-02-16T09:53:06;20.60;51.90
65038;DHT22;51605;47.040;15.294;2024-02-16T09:55:32;20.60;51.90
65038;DHT22;51605;47.040;15.294;2024-02-16T09:57:59;20.60;52.00
65038;DHT22;51605;47.040;15.294;2024-02-16T10:00:25;20.60;52.00
65038;DHT22;51605;47.040;15.294;2024-02-16T10:02:51;20.60;52.50
65038;DHT22;51605;47.040;15.294;2024-02-16T10:05:19;20.60;52.00
65038;DHT22;51605;47.040;15.294;2024-02-16T10:07:45;20.60;52.10
65038;DHT22;51605;47.040;15.294;2024-02-16T10:10:24;20.60;52.00
65038;DHT22;51605;47.040;15.294;2024-02-16T10:13:06;20.60;52.00
65038;DHT22;51605;47.040;15.294;2024-02-16T10:15:34;20.60;52.00
65038;DHT22;51605;47.040;15.294;2024-02-16T10:20:26;20.60;52.00
65038;DHT22;51605;47.040;15.294;2024-02-16T10:23:09;20.60;52.00
65038;DHT22;51605;47.040;15.294;2024-02-16T10:25:36;20.60;52.00
65038;DHT22;51605;47.040;15.294;2024-02-16T10:28:05;20.60;52.00
65038;DHT22;51605;47.040;15.294;2024-02-16T10:30:37;20.60;52.00
65038;DHT22;51605;47.040;15.294;2024-02-16T10:33:06;20.60;52.00
65038;DHT22;51605;47.040;15.294;2024-02-16T10:35:36;20.60;52.00
65038;DHT22;51605;47.040;15.294;2024-02-16T10:38:03;20.60;52.10
65038;DHT22;51605;47.040;15.294;2024-02-16T10:40:39;20.60;52.10
65038;DHT22;51605;47.040;15.294;2024-02-16T10:43:06;20.60;52.40
65038;DHT22;51605;47.040;15.294;2024-02-16T10:45:34;20.60;52.10
65038;DHT22;51605;47.040;15.294;2024-02-16T10:48:02;20.60;52.10
65038;DHT22;51605;47.040;15.294;2024-02-16T10:50:28;20.60;52.10
65038;DHT22;51605;47.040;15.294;2024-02-16T10:52:56;20.60;53.00
65038;DHT22;51605;47.040;15.294;2024-02-16T10:55:23;20.70;52.10
65038;DHT22;51605;47.040;15.294;2024-02-16T10:57:50;20.60;52.00
65038;DHT22;51605;47.040;15.294;2024-02-16T11:00:19;20.60;52.00
65038;DHT22;51605;47.040;15.294;2024-02-16T11:02:56;20.60;52.10
65038;DHT22;51605;47.040;15.294;2024-02-16T11:05:36;20.70;52.10
65038;DHT22;51605;47.040;15.294;2024-02-16T11:08:11;20.60;52.10
65038;DHT22;51605;47.040;15.294;2024-02-16T11:11:00;20.70;52.00
65038;DHT22;51605;47.040;15.294;2024-02-16T11:13:32;20.60;52.00
65038;DHT22;51605;47.040;15.294;2024-02-16T11:16:01;20.70;52.10
65038;DHT22;51605;47.040;15.294;2024-02-16T11:18:37;20.60;52.00
65038;DHT22;51605;47.040;15.294;2024-02-16T11:21:04;20.60;52.20
65038;DHT22;51605;47.040;15.294;2024-02-16T11:23:31;20.60;52.10
65038;DHT22;51605;47.040;15.294;2024-02-16T11:26:04;20.60;52.10
65038;DHT22;51605;47.040;15.294;2024-02-16T11:28:34;20.60;52.10
65038;DHT22;51605;47.040;15.294;2024-02-16T11:31:01;20.60;52.10
65038;DHT22;51605;47.040;15.294;2024-02-16T11:33:28;20.60;52.10
65038;DHT22;51605;47.040;15.294;2024-02-16T11:36:05;20.60;52.20
65038;DHT22;51605;47.040;15.294;2024-02-16T11:38:31;20.60;52.10
65038;DHT22;51605;47.040;15.294;2024-02-16T11:41:07;20.60;52.10
65038;DHT22;51605;47.040;15.294;2024-02-16T11:43:33;20.60;52.10
65038;DHT22;51605;47.040;15.294;2024-02-16T11:45:59;20.60;52.10
65038;DHT22;51605;47.040;15.294;2024-02-16T11:48:26;20.60;52.10
65038;DHT22;51605;47.040;15.294;2024-02-16T11:51:01;20.60;52.00
65038;DHT22;51605;47.040;15.294;2024-02-16T11:53:28;20.60;52.10
65038;DHT22;51605;47.040;15.294;2024-02-16T11:55:54;20.60;52.00
65038;DHT22;51605;47.040;15.294;2024-02-16T11:58:21;20.70;52.00
65038;DHT22;51605;47.040;15.294;2024-02-16T12:00:48;20.70;52.00
65038;DHT22;51605;47.040;15.294;2024-02-16T12:03:24;20.70;52.10
65038;DHT22;51605;47.040;15.294;2024-02-16T12:05:59;20.60;52.00
65038;DHT22;51605;47.040;15.294;2024-02-16T12:08:33;20.70;52.10
65038;DHT22;51605;47.040;15.294;2024-02-16T12:10:59;20.70;52.00
65038;DHT22;51605;47.040;15.294;2024-02-16T12:13:25;20.70;52.00
65038;DHT22;51605;47.040;15.294;2024-02-16T12:15:51;20.70;52.00
65038;DHT22;51605;47.040;15.294;2024-02-16T12:20:59;20.70;52.00
65038;DHT22;51605;47.040;15.294;2024-02-16T12:23:26;20.70;52.10
65038;DHT22;51605;47.040;15.294;2024-02-16T12:25:51;20.70;52.00
65038;DHT22;51605;47.040;15.294;2024-02-16T12:28:18;20.70;52.00
65038;DHT22;51605;47.040;15.294;2024-02-16T12:30:48;20.70;52.00
65038;DHT22;51605;47.040;15.294;2024-02-16T12:33:14;20.70;52.10
65038;DHT22;51605;47.040;15.294;2024-02-16T12:35:40;20.70;52.10
65038;DHT22;51605;47.040;15.294;2024-02-16T12:38:05;20.70;52.10
65038;DHT22;51605;47.040;15.294;2024-02-16T12:40:31;20.70;52.30
65038;DHT22;51605;47.040;15.294;2024-02-16T12:42:57;20.70;52.20
65038;DHT22;51605;47.040;15.294;2024-02-16T12:45:22;20.70;52.20
65038;DHT22;51605;47.040;15.294;2024-02-16T12:47:49;20.70;52.10
65038;DHT22;51605;47.040;15.294;2024-02-16T12:50:16;20.70;52.10
65038;DHT22;51605;47.040;15.294;2024-02-16T12:52:43;20.70;52.10
65038;DHT22;51605;47.040;15.294;2024-02-16T12:55:08;20.70;52.10
65038;DHT22;51605;47.040;15.294;2024-02-16T12:57:36;20.70;52.10
65038;DHT22;51605;47.040;15.294;2024-02-16T13:00:01;20.70;52.10
65038;DHT22;51605;47.040;15.294;2024-02-16T13:02:28;20.70;52.20
65038;DHT22;51605;47.040;15.294;2024-02-16T13:04:54;20.70;53.60
65038;DHT22;51605;47.040;15.294;2024-02-16T13:07:20;20.80;54.00
65038;DHT22;51605;47.040;15.294;2024-02-16T13:09:46;20.80;53.90
65038;DHT22;51605;47.040;15.294;2024-02-16T13:12:11;20.80;53.20
65038;DHT22;51605;47.040;15.294;2024-02-16T13:14:37;20.70;52.80
65038;DHT22;51605;47.040;15.294;2024-02-16T13:17:04;20.70;52.60
65038;DHT22;51605;47.040;15.294;2024-02-16T13:19:29;20.70;52.50
65038;DHT22;51605;47.040;15.294;2024-02-16T13:21:55;20.70;52.50
65038;DHT22;51605;47.040;15.294;2024-02-16T13:24:21;20.80;52.50
65038;DHT22;51605;47.040;15.294;2024-02-16T13:26:46;20.70;52.40
65038;DHT22;51605;47.040;15.294;2024-02-16T13:29:12;20.70;52.60
65038;DHT22;51605;47.040;15.294;2024-02-16T13:31:38;20.70;52.60
65038;DHT22;51605;47.040;15.294;2024-02-16T13:34:05;20.70;53.20
65038;DHT22;51605;47.040;15.294;2024-02-16T13:36:31;20.80;53.60
65038;DHT22;51605;47.040;15.294;2024-02-16T13:38:56;20.80;53.70
65038;DHT22;51605;47.040;15.294;2024-02-16T13:41:22;20.70;53.90
65038;DHT22;51605;47.040;15.294;2024-02-16T13:43:48;20.80;54.10
65038;DHT22;51605;47.040;15.294;2024-02-16T13:46:14;20.80;54.30
65038;DHT22;51605;47.040;15.294;2024-02-16T13:48:40;20.80;54.40
65038;DHT22;51605;47.040;15.294;2024-02-16T13:51:07;20.80;54.50
65038;DHT22;51605;47.040;15.294;2024-02-16T13:53:32;20.80;54.40
65038;DHT22;51605;47.040;15.294;2024-02-16T13:55:58;20.80;54.80
65038;DHT22;51605;47.040;15.294;2024-02-16T13:58:29;20.80;54.80
65038;DHT22;51605;47.040;15.294;2024-02-16T14:00:56;20.80;54.70
65038;DHT22;51605;47.040;15.294;2024-02-16T14:03:21;20.80;54.00
65038;DHT22;51605;47.040;15.294;2024-02-16T14:05:47;20.80;53.50
65038;DHT22;51605;47.040;15.294;2024-02-16T14:08:13;20.80;53.20
65038;DHT22;51605;47.040;15.294;2024-02-16T14:10:40;20.80;53.30
65038;DHT22;51605;47.040;15.294;2024-02-16T14:13:06;20.80;53.10
65038;DHT22;51605;47.040;15.294;2024-02-16T14:15:31;20.80;53.00
65038;DHT22;51605;47.040;15.294;2024-02-16T14:17:57;20.80;53.00
65038;DHT22;51605;47.040;15.294;2024-02-16T14:20:23;20.80;52.90
65038;DHT22;51605;47.040;15.294;2024-02-16T14:22:49;20.80;52.90
65038;DHT22;51605;47.040;15.294;2024-02-16T14:25:15;20.80;52.80
65038;DHT22;51605;47.040;15.294;2024-02-16T14:27:41;20.80;52.80
65038;DHT22;51605;47.040;15.294;2024-02-16T14:30:07;20.80;52.80
65038;DHT22;51605;47.040;15.294;2024-02-16T14:32:33;20.80;53.30
65038;DHT22;51605;47.040;15.294;2024-02-16T14:35:00;20.80;53.10
65038;DHT22;51605;47.040;15.294;2024-02-16T14:37:25;20.80;53.00
65038;DHT22;51605;47.040;15.294;2024-02-16T14:39:53;20.70;52.80
65038;DHT22;51605;47.040;15.294;2024-02-16T14:42:26;20.80;52.80
65038;DHT22;51605;47.040;15.294;2024-02-16T14:44:54;20.70;52.70
65038;DHT22;51605;47.040;15.294;2024-02-16T14:47:19;20.70;52.80
65038;DHT22;51605;47.040;15.294;2024-02-16T14:49:47;20.70;52.80
65038;DHT22;51605;47.040;15.294;2024-02-16T14:52:12;20.70;52.90
65038;DHT22;51605;47.040;15.294;2024-02-16T14:54:38;20.70;52.90
65038;DHT22;51605;47.040;15.294;2024-02-16T14:57:05;20.70;52.90
65038;DHT22;51605;47.040;15.294;2024-02-16T14:59:31;20.70;52.90
65038;DHT22;51605;47.040;15.294;2024-02-16T15:01:56;20.70;52.90
65038;DHT22;51605;47.040;15.294;2024-02-16T15:04:23;20.70;52.90
65038;DHT22;51605;47.040;15.294;2024-02-16T15:06:49;20.70;53.00
65038;DHT22;51605;47.040;15.294;2024-02-16T15:09:14;20.70;52.90
65038;DHT22;51605;47.040;15.294;2024-02-16T15:11:40;20.70;52.90
65038;DHT22;51605;47.040;15.294;2024-02-16T15:14:05;20.70;52.80
65038;DHT22;51605;47.040;15.294;2024-02-16T15:16:31;20.70;52.80
65038;DHT22;51605;47.040;15.294;2024-02-16T15:18:57;20.70;52.70